createdAt,value
2022-09-17T00:01:22.969Z,3.63
2022-09-17T00:03:50.681Z,5.60
2022-09-17T00:06:17.501Z,3.53
2022-09-17T00:08:44.148Z,2.40
2022-09-17T00:11:15.032Z,2.50
2022-09-17T00:13:42.198Z,2.73
2022-09-17T00:16:08.852Z,2.83
2022-09-17T00:18:37.073Z,4.30
2022-09-17T00:21:03.748Z,3.70
2022-09-17T00:23:30.484Z,2.90
2022-09-17T00:25:57.090Z,3.47
2022-09-17T00:28:23.769Z,4.53
2022-09-17T00:30:50.446Z,2.93
2022-09-17T00:33:17.503Z,2.17
2022-09-17T00:35:44.171Z,4.23
2022-09-17T00:38:10.982Z,2.27
2022-09-17T00:40:37.790Z,2.13
2022-09-17T00:43:04.693Z,1.53
2022-09-17T00:45:32.194Z,2.03
2022-09-17T00:48:02.186Z,2.73
2022-09-17T00:50:28.824Z,1.80
2022-09-17T00:53:00.221Z,2.77
2022-09-17T00:55:28.676Z,5.57
2022-09-17T00:57:56.001Z,2.17
2022-09-17T01:00:22.841Z,1.47
2022-09-17T01:02:49.600Z,5.40
2022-09-17T01:05:16.284Z,3.80
2022-09-17T01:07:52.016Z,3.23
2022-09-17T01:10:37.448Z,2.60
2022-09-17T01:13:04.103Z,2.13
2022-09-17T01:15:49.759Z,2.00
2022-09-17T01:18:38.898Z,1.30
2022-09-17T01:21:24.512Z,4.10
2022-09-17T01:23:54.613Z,1.63
2022-09-17T01:26:24.279Z,2.20
2022-09-17T01:29:06.093Z,2.33
2022-09-17T01:31:53.159Z,4.83
2022-09-17T01:34:35.039Z,4.70
2022-09-17T01:37:01.778Z,3.60
2022-09-17T01:39:33.899Z,3.00
2022-09-17T01:42:09.900Z,2.97
2022-09-17T01:44:50.990Z,3.60
2022-09-17T01:47:27.817Z,2.40
2022-09-17T01:49:55.511Z,3.00
2022-09-17T01:52:22.214Z,1.73
2022-09-17T01:54:51.193Z,3.03
2022-09-17T01:57:23.799Z,1.83
2022-09-17T01:59:51.664Z,2.60
2022-09-17T02:02:29.844Z,1.13
2022-09-17T02:05:01.441Z,1.53
2022-09-17T02:07:28.139Z,1.00
2022-09-17T02:09:58.139Z,1.83
2022-09-17T02:12:28.668Z,2.73
2022-09-17T02:14:56.741Z,1.70
2022-09-17T02:17:27.649Z,1.83
2022-09-17T02:19:54.913Z,3.23
2022-09-17T02:22:23.312Z,6.07
2022-09-17T02:24:49.992Z,1.90
2022-09-17T02:27:17.354Z,3.77
2022-09-17T02:29:44.448Z,1.90
2022-09-17T02:32:11.486Z,4.03
2022-09-17T02:34:38.258Z,2.13
2022-09-17T02:37:05.053Z,3.70
2022-09-17T02:39:31.826Z,2.57
2022-09-17T02:42:17.420Z,6.60
2022-09-17T02:44:55.420Z,3.20
2022-09-17T02:47:25.644Z,3.17
2022-09-17T02:49:58.463Z,4.63
2022-09-17T02:52:28.156Z,2.50
2022-09-17T02:54:54.830Z,3.27
2022-09-17T02:57:27.673Z,4.43
2022-09-17T02:59:57.461Z,2.37
2022-09-17T03:02:37.375Z,3.97
2022-09-17T03:05:04.896Z,3.23
2022-09-17T03:07:32.665Z,3.97
2022-09-17T03:09:59.696Z,3.10
2022-09-17T03:12:26.909Z,1.53
2022-09-17T03:14:53.741Z,3.97
2022-09-17T03:17:20.321Z,3.17
2022-09-17T03:19:47.598Z,1.97
2022-09-17T03:22:14.285Z,1.27
2022-09-17T03:24:41.503Z,1.20
2022-09-17T03:27:08.125Z,3.13
2022-09-17T03:29:34.857Z,1.83
2022-09-17T03:32:01.562Z,4.20
2022-09-17T03:34:28.320Z,1.67
2022-09-17T03:36:55.034Z,1.13
2022-09-17T03:39:21.718Z,1.43
2022-09-17T03:41:48.380Z,1.43
2022-09-17T03:44:15.604Z,2.23
2022-09-17T03:46:42.324Z,2.37
2022-09-17T03:49:09.183Z,4.47
2022-09-17T03:51:35.771Z,2.77
2022-09-17T03:54:03.300Z,1.93
2022-09-17T03:56:30.007Z,2.30
2022-09-17T03:59:00.344Z,2.47
2022-09-17T04:01:27.437Z,3.67
2022-09-17T04:03:54.391Z,2.40
2022-09-17T04:06:21.279Z,3.53
2022-09-17T04:08:48.078Z,2.07
2022-09-17T04:11:18.736Z,3.37
2022-09-17T04:13:45.616Z,2.23
2022-09-17T04:16:12.404Z,1.70
2022-09-17T04:18:39.263Z,2.57
2022-09-17T04:21:06.154Z,2.00
2022-09-17T04:23:32.866Z,3.57
2022-09-17T04:25:59.630Z,3.53
2022-09-17T04:28:26.773Z,1.30
2022-09-17T04:30:54.219Z,3.67
2022-09-17T04:33:21.275Z,2.37
2022-09-17T04:35:48.133Z,13.30
2022-09-17T04:38:18.637Z,5.27
2022-09-17T04:40:46.588Z,3.67
2022-09-17T04:43:13.365Z,3.07
2022-09-17T04:45:41.785Z,3.80
2022-09-17T04:48:09.194Z,4.40
2022-09-17T04:50:35.949Z,3.40
2022-09-17T04:53:03.485Z,3.87
2022-09-17T04:55:31.324Z,4.17
2022-09-17T04:57:58.299Z,3.73
2022-09-17T05:00:25.059Z,2.50
2022-09-17T05:02:54.129Z,5.17
2022-09-17T05:05:21.120Z,4.40
2022-09-17T05:07:47.834Z,5.10
2022-09-17T05:10:15.177Z,4.43
2022-09-17T05:12:41.909Z,3.70
2022-09-17T05:15:08.828Z,3.20
2022-09-17T05:17:35.985Z,2.50
2022-09-17T05:20:03.166Z,3.93
2022-09-17T05:22:30.265Z,3.43
2022-09-17T05:24:57.322Z,3.50
2022-09-17T05:27:24.341Z,3.33
2022-09-17T05:29:51.305Z,3.03
2022-09-17T05:32:18.489Z,4.00
2022-09-17T05:34:45.771Z,5.80
2022-09-17T05:37:12.981Z,5.37
2022-09-17T05:39:40.054Z,5.13
2022-09-17T05:42:07.064Z,5.53
2022-09-17T05:44:33.995Z,6.07
2022-09-17T05:47:01.887Z,5.80
2022-09-17T05:49:32.832Z,4.53
2022-09-17T05:52:00.297Z,6.13
2022-09-17T05:54:27.501Z,5.93
2022-09-17T05:56:54.691Z,6.73
2022-09-17T05:59:22.047Z,4.87
2022-09-17T06:01:50.970Z,4.87
2022-09-17T06:04:20.897Z,3.87
2022-09-17T06:06:48.195Z,4.83
2022-09-17T06:09:15.411Z,3.43
2022-09-17T06:11:42.189Z,4.53
2022-09-17T06:14:09.452Z,3.57
2022-09-17T06:16:36.314Z,5.90
2022-09-17T06:19:04.178Z,4.60
2022-09-17T06:21:31.340Z,4.33
2022-09-17T06:23:58.005Z,3.27
2022-09-17T06:26:24.825Z,4.47
2022-09-17T06:28:51.498Z,4.43
2022-09-17T06:31:18.419Z,3.27
2022-09-17T06:33:45.537Z,3.23
2022-09-17T06:36:14.650Z,4.83
2022-09-17T06:38:41.759Z,3.30
2022-09-17T06:41:08.738Z,3.40
2022-09-17T06:43:35.448Z,3.50
2022-09-17T06:46:03.050Z,3.03
2022-09-17T06:48:30.231Z,3.33
2022-09-17T06:50:58.852Z,2.70
2022-09-17T06:53:25.583Z,3.53
2022-09-17T06:55:53.565Z,3.03
2022-09-17T06:58:20.478Z,5.30
2022-09-17T07:00:47.850Z,4.13
2022-09-17T07:03:14.901Z,4.47
2022-09-17T07:05:43.121Z,3.80
2022-09-17T07:10:56.643Z,4.13
2022-09-17T07:13:23.615Z,3.77
2022-09-17T07:15:58.113Z,1.87
2022-09-17T07:18:27.312Z,3.00
2022-09-17T07:20:57.828Z,3.73
2022-09-17T07:23:24.816Z,3.27
2022-09-17T07:28:41.080Z,2.97
2022-09-17T07:33:51.891Z,2.73
2022-09-17T07:36:18.999Z,2.70
2022-09-17T07:38:45.830Z,2.63
2022-09-17T07:41:13.453Z,2.60
2022-09-17T07:46:24.525Z,7.10
2022-09-17T07:51:36.101Z,3.80
2022-09-17T07:54:02.865Z,3.63
2022-09-17T07:56:29.677Z,3.43
2022-09-17T07:58:56.662Z,3.33
2022-09-17T08:01:24.043Z,3.57
2022-09-17T08:03:51.797Z,4.03
2022-09-17T08:06:22.354Z,2.00
2022-09-17T08:08:49.782Z,3.57
2022-09-17T08:11:32.420Z,3.37
2022-09-17T08:14:04.683Z,2.90
2022-09-17T08:16:31.669Z,5.67
2022-09-17T08:18:58.659Z,4.53
2022-09-17T08:21:27.098Z,3.33
2022-09-17T08:23:54.129Z,2.80
2022-09-17T08:26:22.956Z,11.97
2022-09-17T08:28:50.810Z,17.80
2022-09-17T08:31:18.339Z,3.77
2022-09-17T08:33:45.105Z,13.67
2022-09-17T08:36:12.517Z,4.90
2022-09-17T08:38:40.714Z,3.23
2022-09-17T08:41:07.667Z,2.93
2022-09-17T08:43:34.575Z,3.63
2022-09-17T08:46:01.208Z,3.50
2022-09-17T08:48:29.287Z,3.60
2022-09-17T08:51:01.677Z,2.37
2022-09-17T08:53:33.192Z,3.50
2022-09-17T08:56:06.413Z,3.10
2022-09-17T08:58:45.424Z,2.47
2022-09-17T09:01:16.320Z,2.70
2022-09-17T09:04:00.308Z,2.83
2022-09-17T09:06:28.422Z,4.30
2022-09-17T09:09:00.418Z,3.47
2022-09-17T09:11:27.648Z,2.73
2022-09-17T09:13:55.911Z,3.43
2022-09-17T09:16:23.704Z,2.37
2022-09-17T09:18:54.731Z,2.33
2022-09-17T09:21:34.434Z,4.50
2022-09-17T09:24:16.863Z,2.50
2022-09-17T09:26:46.633Z,2.57
2022-09-17T09:29:22.286Z,3.27
2022-09-17T09:31:55.365Z,2.37
2022-09-17T09:34:23.531Z,2.80
2022-09-17T09:36:50.547Z,2.83
2022-09-17T09:39:17.477Z,4.13
2022-09-17T09:41:45.448Z,4.03
2022-09-17T09:44:15.623Z,2.90
2022-09-17T09:46:43.271Z,4.13
2022-09-17T09:49:31.589Z,2.60
2022-09-17T09:52:21.049Z,2.07
2022-09-17T09:54:47.756Z,1.97
2022-09-17T09:57:15.271Z,2.17
2022-09-17T09:59:42.021Z,1.67
2022-09-17T10:02:09.014Z,2.80
2022-09-17T10:04:37.819Z,5.37
2022-09-17T10:07:05.084Z,4.17
2022-09-17T10:09:32.930Z,4.80
2022-09-17T10:12:00.220Z,2.77
2022-09-17T10:14:28.061Z,2.97
2022-09-17T10:17:18.242Z,1.70
2022-09-17T10:19:47.057Z,10.57
2022-09-17T10:22:24.309Z,1.67
2022-09-17T10:24:51.855Z,1.53
2022-09-17T10:27:19.313Z,3.47
2022-09-17T10:29:47.210Z,1.77
2022-09-17T10:32:17.409Z,1.60
2022-09-17T10:34:57.343Z,2.67
2022-09-17T10:37:43.082Z,0.87
2022-09-17T10:40:19.055Z,2.57
2022-09-17T10:42:50.993Z,1.47
2022-09-17T10:45:27.581Z,1.13
2022-09-17T10:47:54.499Z,2.27
2022-09-17T10:50:30.491Z,2.63
2022-09-17T10:52:58.079Z,1.60
2022-09-17T10:55:31.326Z,0.40
2022-09-17T10:58:07.630Z,1.00
2022-09-17T11:00:34.443Z,0.40
2022-09-17T11:03:19.965Z,1.23
2022-09-17T11:06:03.695Z,1.07
2022-09-17T11:08:42.224Z,1.60
2022-09-17T11:11:12.634Z,1.67
2022-09-17T11:13:57.996Z,1.67
2022-09-17T11:16:34.337Z,2.27
2022-09-17T11:19:33.464Z,2.47
2022-09-17T11:22:04.157Z,3.13
2022-09-17T11:24:48.506Z,1.60
2022-09-17T11:27:24.402Z,1.20
2022-09-17T11:30:04.193Z,2.53
2022-09-17T11:32:50.310Z,3.17
2022-09-17T11:35:17.553Z,3.17
2022-09-17T11:37:49.241Z,3.17
2022-09-17T11:40:17.979Z,1.60
2022-09-17T11:42:45.714Z,5.90
2022-09-17T11:45:18.960Z,1.73
2022-09-17T11:47:53.366Z,1.73
2022-09-17T11:50:26.322Z,0.80
2022-09-17T11:53:08.499Z,2.27
2022-09-17T11:55:44.403Z,1.03
2022-09-17T11:58:31.412Z,1.47
2022-09-17T12:01:01.902Z,1.63
2022-09-17T12:03:30.743Z,8.93
2022-09-17T12:05:58.337Z,2.47
2022-09-17T12:08:26.570Z,2.73
2022-09-17T12:10:56.961Z,1.33
2022-09-17T12:13:35.354Z,1.90
2022-09-17T12:16:20.731Z,1.67
2022-09-17T12:18:50.418Z,2.37
2022-09-17T12:21:21.836Z,2.07
2022-09-17T12:23:57.913Z,2.00
2022-09-17T12:26:43.395Z,5.20
2022-09-17T12:29:28.644Z,2.73
2022-09-17T12:32:13.964Z,1.80
2022-09-17T12:34:40.698Z,0.87
2022-09-17T12:37:25.888Z,0.80
2022-09-17T12:39:52.918Z,1.50
2022-09-17T12:42:22.758Z,3.60
2022-09-17T12:44:53.054Z,1.73
2022-09-17T12:47:26.271Z,1.33
2022-09-17T12:50:14.198Z,2.93
2022-09-17T12:53:08.263Z,2.57
2022-09-17T12:55:36.584Z,1.27
2022-09-17T12:58:22.151Z,1.60
2022-09-17T13:00:51.322Z,1.67
2022-09-17T13:03:23.942Z,5.00
2022-09-17T13:05:50.635Z,9.50
2022-09-17T13:08:17.342Z,2.30
2022-09-17T13:11:05.252Z,1.63
2022-09-17T13:16:26.438Z,2.70
2022-09-17T13:22:03.378Z,1.97
2022-09-17T13:27:22.330Z,2.47
2022-09-17T13:29:55.769Z,1.23
2022-09-17T13:32:34.934Z,1.73
2022-09-17T13:35:10.603Z,1.70
2022-09-17T13:37:37.848Z,2.30
2022-09-17T13:40:07.477Z,7.90
2022-09-17T13:42:44.644Z,3.43
2022-09-17T13:45:15.992Z,2.43
2022-09-17T13:47:53.824Z,2.20
2022-09-17T13:50:30.237Z,1.57
2022-09-17T13:52:57.246Z,2.57
2022-09-17T13:55:31.266Z,1.30
2022-09-17T13:57:59.131Z,1.77
2022-09-17T14:00:45.281Z,2.63
2022-09-17T14:03:44.653Z,1.60
2022-09-17T14:06:11.561Z,1.87
2022-09-17T14:08:44.429Z,1.67
2022-09-17T14:11:23.730Z,1.80
2022-09-17T14:13:51.034Z,2.83
2022-09-17T14:16:37.441Z,2.30
2022-09-17T14:19:16.870Z,2.03
2022-09-17T14:22:02.131Z,2.27
2022-09-17T14:24:44.381Z,2.20
2022-09-17T14:27:29.927Z,5.60
2022-09-17T14:30:02.932Z,4.07
2022-09-17T14:33:02.454Z,5.10
2022-09-17T14:35:29.285Z,2.33
2022-09-17T14:37:59.510Z,1.50
2022-09-17T14:40:26.543Z,0.93
2022-09-17T14:42:55.211Z,3.40
2022-09-17T14:48:31.962Z,1.33
2022-09-17T14:51:17.221Z,2.47
2022-09-17T14:53:50.707Z,2.37
2022-09-17T14:56:17.818Z,2.10
2022-09-17T14:58:48.443Z,3.97
2022-09-17T15:01:24.105Z,1.83
2022-09-17T15:03:51.048Z,1.70
2022-09-17T15:06:23.714Z,3.60
2022-09-17T15:08:50.527Z,4.87
2022-09-17T15:11:17.609Z,2.13
2022-09-17T15:13:50.791Z,2.33
2022-09-17T15:16:25.745Z,2.90
2022-09-17T15:19:00.101Z,3.40
2022-09-17T15:21:29.732Z,2.17
2022-09-17T15:24:01.417Z,3.03
2022-09-17T15:26:30.867Z,4.00
2022-09-17T15:28:57.647Z,3.23
2022-09-17T15:31:24.498Z,2.17
2022-09-17T15:33:51.191Z,4.00
2022-09-17T15:36:20.207Z,3.63
2022-09-17T15:38:47.069Z,4.97
2022-09-17T15:41:21.040Z,5.03
2022-09-17T15:43:49.901Z,3.40
2022-09-17T15:46:34.839Z,2.53
2022-09-17T15:49:02.050Z,2.97
2022-09-17T15:51:29.838Z,4.70
2022-09-17T15:53:57.716Z,6.73
2022-09-17T15:56:42.863Z,6.20
2022-09-17T15:59:24.804Z,4.93
2022-09-17T16:01:55.916Z,3.20
2022-09-17T16:04:23.616Z,6.50
2022-09-17T16:06:56.439Z,1.83
2022-09-17T16:09:36.616Z,2.13
2022-09-17T16:12:03.610Z,2.37
2022-09-17T16:14:30.293Z,2.73
2022-09-17T16:16:57.228Z,2.03
2022-09-17T16:19:23.956Z,2.60
2022-09-17T16:21:50.807Z,3.27
2022-09-17T16:24:18.677Z,2.67
2022-09-17T16:26:45.468Z,2.53
2022-09-17T16:29:12.850Z,2.43
2022-09-17T16:31:41.051Z,3.43
2022-09-17T16:34:07.991Z,4.13
2022-09-17T16:36:35.202Z,3.47
2022-09-17T16:39:02.027Z,5.50
2022-09-17T16:41:29.035Z,5.77
2022-09-17T16:43:55.701Z,4.73
2022-09-17T16:46:22.488Z,3.93
2022-09-17T16:48:50.703Z,7.40
2022-09-17T16:51:17.576Z,9.13
2022-09-17T16:53:44.364Z,7.83
2022-09-17T16:56:11.828Z,9.03
2022-09-17T16:58:38.710Z,10.83
2022-09-17T17:01:09.400Z,11.33
2022-09-17T17:03:36.389Z,10.70
2022-09-17T17:06:03.574Z,6.80
2022-09-17T17:08:34.044Z,7.20
2022-09-17T17:11:01.214Z,6.50
2022-09-17T17:13:29.264Z,4.73
2022-09-17T17:15:59.843Z,6.03
2022-09-17T17:18:26.689Z,7.70
2022-09-17T17:20:53.545Z,6.97
2022-09-17T17:23:20.223Z,5.63
2022-09-17T17:25:47.056Z,8.80
2022-09-17T17:28:15.158Z,7.10
2022-09-17T17:30:41.902Z,7.33
2022-09-17T17:33:08.569Z,7.43
2022-09-17T17:35:38.610Z,7.30
2022-09-17T17:38:05.441Z,7.50
2022-09-17T17:40:32.241Z,8.43
2022-09-17T17:42:59.218Z,7.77
2022-09-17T17:45:26.102Z,8.10
2022-09-17T17:47:53.010Z,10.30
2022-09-17T17:50:19.804Z,8.83
2022-09-17T17:52:48.256Z,12.70
2022-09-17T17:55:15.486Z,10.23
2022-09-17T17:57:42.383Z,12.97
2022-09-17T18:00:10.351Z,13.03
2022-09-17T18:02:41.937Z,14.10
2022-09-17T18:05:09.306Z,15.63
2022-09-17T18:07:36.241Z,16.50
2022-09-17T18:10:03.353Z,20.67
2022-09-17T18:12:32.290Z,15.97
2022-09-17T18:14:59.172Z,16.13
2022-09-17T18:17:26.335Z,21.27
2022-09-17T18:19:56.511Z,14.77
2022-09-17T18:22:26.878Z,13.60
2022-09-17T18:24:53.514Z,13.73
2022-09-17T18:27:21.497Z,12.63
2022-09-17T18:29:49.737Z,13.57
2022-09-17T18:32:16.699Z,12.47
2022-09-17T18:34:43.356Z,13.07
2022-09-17T18:37:10.088Z,15.37
2022-09-17T18:42:23.673Z,14.87
2022-09-17T18:44:50.748Z,12.77
2022-09-17T18:47:17.742Z,13.73
2022-09-17T18:49:44.609Z,11.57
2022-09-17T18:52:14.621Z,12.17
2022-09-17T18:54:41.463Z,11.83
2022-09-17T18:57:08.240Z,13.23
2022-09-17T18:59:35.602Z,11.40
2022-09-17T19:02:02.369Z,9.23
2022-09-17T19:04:29.694Z,14.50
2022-09-17T19:06:56.574Z,11.73
2022-09-17T19:09:23.408Z,11.37
2022-09-17T19:11:50.184Z,14.13
2022-09-17T19:14:17.806Z,11.93
2022-09-17T19:16:44.573Z,9.63
2022-09-17T19:19:11.795Z,12.17
2022-09-17T19:21:38.667Z,12.23
2022-09-17T19:24:05.799Z,9.50
2022-09-17T19:26:32.778Z,14.87
2022-09-17T19:29:00.600Z,12.13
2022-09-17T19:31:29.076Z,13.17
2022-09-17T19:33:56.625Z,13.60
2022-09-17T19:36:23.531Z,12.10
2022-09-17T19:38:50.469Z,12.97
2022-09-17T19:41:21.329Z,13.63
2022-09-17T19:43:52.522Z,15.63
2022-09-17T19:46:21.066Z,10.50
2022-09-17T19:48:51.867Z,13.83
2022-09-17T19:51:19.766Z,8.23
2022-09-17T19:53:46.710Z,11.83
2022-09-17T19:56:14.444Z,11.37
2022-09-17T19:58:41.289Z,11.27
2022-09-17T20:01:08.399Z,10.47
2022-09-17T20:03:35.123Z,11.83
2022-09-17T20:06:05.918Z,9.80
2022-09-17T20:08:39.405Z,11.27
2022-09-17T20:11:09.308Z,10.87
2022-09-17T20:13:37.126Z,9.00
2022-09-17T20:16:11.278Z,9.57
2022-09-17T20:18:43.135Z,10.87
2022-09-17T20:21:11.044Z,9.20
2022-09-17T20:23:37.890Z,10.83
2022-09-17T20:26:06.325Z,10.33
2022-09-17T20:28:34.316Z,9.87
2022-09-17T20:31:05.230Z,13.13
2022-09-17T20:33:32.120Z,12.77
2022-09-17T20:36:02.688Z,8.27
2022-09-17T20:41:17.394Z,9.20
2022-09-17T20:43:46.815Z,11.10
2022-09-17T20:46:13.973Z,8.83
2022-09-17T20:48:42.435Z,13.57
2022-09-17T20:51:11.490Z,11.13
2022-09-17T20:53:39.085Z,14.13
2022-09-17T20:56:12.770Z,10.53
2022-09-17T20:58:45.438Z,8.80
2022-09-17T21:01:13.903Z,11.03
2022-09-17T21:03:41.234Z,8.90
2022-09-17T21:06:08.172Z,9.57
2022-09-17T21:08:35.120Z,9.57
2022-09-17T21:11:05.430Z,9.43
2022-09-17T21:13:32.429Z,9.27
2022-09-17T21:15:59.565Z,8.67
2022-09-17T21:18:26.828Z,7.53
2022-09-17T21:20:53.879Z,9.13
2022-09-17T21:23:24.718Z,9.13
2022-09-17T21:25:51.840Z,10.00
2022-09-17T21:28:21.970Z,11.53
2022-09-17T21:30:51.986Z,9.57
2022-09-17T21:33:22.234Z,10.77
2022-09-17T21:35:50.160Z,8.30
2022-09-17T21:38:19.737Z,9.37
2022-09-17T21:40:56.863Z,10.03
2022-09-17T21:43:23.900Z,9.67
2022-09-17T21:46:00.504Z,12.33
2022-09-17T21:48:27.369Z,9.07
2022-09-17T21:51:00.486Z,10.67
2022-09-17T21:53:28.225Z,10.80
2022-09-17T21:55:55.011Z,6.70
2022-09-17T21:58:21.899Z,8.87
2022-09-17T22:00:49.612Z,7.60
2022-09-17T22:03:20.020Z,9.40
2022-09-17T22:05:46.893Z,9.90
2022-09-17T22:08:13.563Z,11.63
2022-09-17T22:10:40.291Z,10.70
2022-09-17T22:13:07.272Z,8.70
2022-09-17T22:15:34.052Z,8.00
2022-09-17T22:18:00.711Z,10.17
2022-09-17T22:20:29.276Z,10.37
2022-09-17T22:22:56.501Z,11.57
2022-09-17T22:25:23.539Z,10.20
2022-09-17T22:28:10.175Z,10.50
2022-09-17T22:30:37.018Z,10.43
2022-09-17T22:33:03.974Z,9.27
2022-09-17T22:35:30.628Z,9.47
2022-09-17T22:37:57.426Z,8.03
2022-09-17T22:40:24.287Z,12.53
2022-09-17T22:42:51.496Z,11.83
2022-09-17T22:45:18.721Z,9.47
2022-09-17T22:47:45.319Z,10.03
2022-09-17T22:50:12.044Z,9.63
2022-09-17T22:52:38.825Z,11.20
2022-09-17T22:55:06.020Z,10.23
2022-09-17T22:57:32.610Z,15.07
2022-09-17T22:59:59.363Z,10.50
2022-09-17T23:02:26.133Z,11.23
2022-09-17T23:04:53.014Z,10.63
2022-09-17T23:07:19.669Z,11.93
2022-09-17T23:09:46.343Z,8.20
2022-09-17T23:12:12.994Z,6.33
2022-09-17T23:14:39.667Z,8.63
2022-09-17T23:17:06.289Z,10.20
2022-09-17T23:19:33.049Z,7.87
2022-09-17T23:21:59.712Z,8.73
2022-09-17T23:24:26.458Z,8.33
2022-09-17T23:26:53.121Z,7.67
2022-09-17T23:29:19.842Z,11.03
2022-09-17T23:31:46.501Z,9.70
2022-09-17T23:34:13.163Z,10.43
2022-09-17T23:36:40.285Z,8.90
2022-09-17T23:39:07.692Z,8.77
2022-09-17T23:41:35.403Z,6.60
2022-09-17T23:44:02.804Z,6.53
2022-09-17T23:46:29.919Z,8.97
2022-09-17T23:48:56.805Z,5.93
2022-09-17T23:51:24.084Z,8.30
2022-09-17T23:53:50.812Z,8.07
2022-09-17T23:56:21.550Z,5.73
2022-09-17T23:58:48.570Z,6.53
